sensor_id;sensor_type;location;lat;lon;timestamp;temperature;humidity
18083;DHT22;9168;51.194;6.840;2022-07-24T00:01:09;18.10;99.90
18083;DHT22;9168;51.194;6.840;2022-07-24T00:03:36;18.10;99.90
18083;DHT22;9168;51.194;6.840;2022-07-24T00:06:05;18.10;99.90
18083;DHT22;9168;51.194;6.840;2022-07-24T00:08:32;18.10;99.90
18083;DHT22;9168;51.194;6.840;2022-07-24T00:10:59;18.10;99.90
18083;DHT22;9168;51.194;6.840;2022-07-24T00:13:26;18.10;99.90
18083;DHT22;9168;51.194;6.840;2022-07-24T00:15:52;18.10;99.90
18083;DHT22;9168;51.194;6.840;2022-07-24T00:18:19;18.10;99.90
18083;DHT22;9168;51.194;6.840;2022-07-24T00:20:46;18.00;99.90
18083;DHT22;9168;51.194;6.840;2022-07-24T00:23:14;18.00;99.90
18083;DHT22;9168;51.194;6.840;2022-07-24T00:25:41;18.00;99.90
18083;DHT22;9168;51.194;6.840;2022-07-24T00:28:08;18.00;99.90
18083;DHT22;9168;51.194;6.840;2022-07-24T00:30:35;18.00;99.90
18083;DHT22;9168;51.194;6.840;2022-07-24T00:33:03;18.00;99.90
18083;DHT22;9168;51.194;6.840;2022-07-24T00:35:30;18.00;99.90
18083;DHT22;9168;51.194;6.840;2022-07-24T00:37:57;18.00;99.90
18083;DHT22;9168;51.194;6.840;2022-07-24T00:40:25;18.00;99.90
18083;DHT22;9168;51.194;6.840;2022-07-24T00:42:52;17.90;99.90
18083;DHT22;9168;51.194;6.840;2022-07-24T00:45:20;18.00;99.90
18083;DHT22;9168;51.194;6.840;2022-07-24T00:47:46;17.90;99.90
18083;DHT22;9168;51.194;6.840;2022-07-24T00:50:13;17.90;99.90
18083;DHT22;9168;51.194;6.840;2022-07-24T00:52:40;17.90;99.90
18083;DHT22;9168;51.194;6.840;2022-07-24T00:55:09;18.00;99.90
18083;DHT22;9168;51.194;6.840;2022-07-24T00:57:38;18.00;99.90
18083;DHT22;9168;51.194;6.840;2022-07-24T01:00:05;18.00;99.90
18083;DHT22;9168;51.194;6.840;2022-07-24T01:02:33;18.00;99.90
18083;DHT22;9168;51.194;6.840;2022-07-24T01:05:00;18.00;99.90
18083;DHT22;9168;51.194;6.840;2022-07-24T01:07:27;18.00;99.90
18083;DHT22;9168;51.194;6.840;2022-07-24T01:09:54;18.00;99.90
18083;DHT22;9168;51.194;6.840;2022-07-24T01:12:21;17.90;99.90
18083;DHT22;9168;51.194;6.840;2022-07-24T01:14:50;17.90;99.90
18083;DHT22;9168;51.194;6.840;2022-07-24T01:17:17;17.90;99.90
18083;DHT22;9168;51.194;6.840;2022-07-24T01:19:43;17.80;99.90
18083;DHT22;9168;51.194;6.840;2022-07-24T01:22:12;17.80;99.90
18083;DHT22;9168;51.194;6.840;2022-07-24T01:24:39;17.80;99.90
18083;DHT22;9168;51.194;6.840;2022-07-24T01:27:06;17.80;99.90
18083;DHT22;9168;51.194;6.840;2022-07-24T01:29:33;17.70;99.90
18083;DHT22;9168;51.194;6.840;2022-07-24T01:32:00;17.70;99.90
18083;DHT22;9168;51.194;6.840;2022-07-24T01:34:27;17.70;99.90
18083;DHT22;9168;51.194;6.840;2022-07-24T01:36:54;17.60;99.90
18083;DHT22;9168;51.194;6.840;2022-07-24T01:39:22;17.60;99.90
18083;DHT22;9168;51.194;6.840;2022-07-24T01:41:49;17.60;99.90
18083;DHT22;9168;51.194;6.840;2022-07-24T01:44:16;17.60;99.90
18083;DHT22;9168;51.194;6.840;2022-07-24T01:46:43;17.60;99.90
18083;DHT22;9168;51.194;6.840;2022-07-24T01:49:10;17.60;99.90
18083;DHT22;9168;51.194;6.840;2022-07-24T01:51:36;17.60;99.90
18083;DHT22;9168;51.194;6.840;2022-07-24T01:54:04;17.60;99.90
18083;DHT22;9168;51.194;6.840;2022-07-24T01:56:33;17.60;99.90
18083;DHT22;9168;51.194;6.840;2022-07-24T01:59:00;17.60;99.90
18083;DHT22;9168;51.194;6.840;2022-07-24T02:01:27;17.60;99.90
18083;DHT22;9168;51.194;6.840;2022-07-24T02:03:55;17.60;99.90
18083;DHT22;9168;51.194;6.840;2022-07-24T02:06:22;17.50;99.90
18083;DHT22;9168;51.194;6.840;2022-07-24T02:08:49;17.50;99.90
18083;DHT22;9168;51.194;6.840;2022-07-24T02:11:16;17.50;99.90
18083;DHT22;9168;51.194;6.840;2022-07-24T02:13:45;17.50;99.90
18083;DHT22;9168;51.194;6.840;2022-07-24T02:16:12;17.40;99.90
18083;DHT22;9168;51.194;6.840;2022-07-24T02:18:39;17.40;99.90
18083;DHT22;9168;51.194;6.840;2022-07-24T02:21:06;17.40;99.90
18083;DHT22;9168;51.194;6.840;2022-07-24T02:23:32;17.40;99.90
18083;DHT22;9168;51.194;6.840;2022-07-24T02:25:59;17.50;99.90
18083;DHT22;9168;51.194;6.840;2022-07-24T02:28:26;17.40;99.90
18083;DHT22;9168;51.194;6.840;2022-07-24T02:30:54;17.40;99.90
18083;DHT22;9168;51.194;6.840;2022-07-24T02:33:22;17.40;99.90
18083;DHT22;9168;51.194;6.840;2022-07-24T02:35:49;17.40;99.90
18083;DHT22;9168;51.194;6.840;2022-07-24T02:38:15;17.40;99.90
18083;DHT22;9168;51.194;6.840;2022-07-24T02:40:42;17.30;99.90
18083;DHT22;9168;51.194;6.840;2022-07-24T02:43:09;17.30;99.90
18083;DHT22;9168;51.194;6.840;2022-07-24T02:45:36;17.30;99.90
18083;DHT22;9168;51.194;6.840;2022-07-24T02:48:05;17.30;99.90
18083;DHT22;9168;51.194;6.840;2022-07-24T02:50:33;17.40;99.90
18083;DHT22;9168;51.194;6.840;2022-07-24T02:53:02;17.40;99.90
18083;DHT22;9168;51.194;6.840;2022-07-24T02:55:29;17.40;99.90
18083;DHT22;9168;51.194;6.840;2022-07-24T02:57:56;17.40;99.90
18083;DHT22;9168;51.194;6.840;2022-07-24T03:00:23;17.40;99.90
18083;DHT22;9168;51.194;6.840;2022-07-24T03:02:51;17.40;99.90
18083;DHT22;9168;51.194;6.840;2022-07-24T03:05:19;17.40;99.90
18083;DHT22;9168;51.194;6.840;2022-07-24T03:07:46;17.50;99.90
18083;DHT22;9168;51.194;6.840;2022-07-24T03:10:14;17.50;99.90
18083;DHT22;9168;51.194;6.840;2022-07-24T03:12:42;17.60;99.90
18083;DHT22;9168;51.194;6.840;2022-07-24T03:15:11;17.60;99.90
18083;DHT22;9168;51.194;6.840;2022-07-24T03:17:38;17.60;99.90
18083;DHT22;9168;51.194;6.840;2022-07-24T03:20:06;17.60;99.90
18083;DHT22;9168;51.194;6.840;2022-07-24T03:22:34;17.70;99.90
18083;DHT22;9168;51.194;6.840;2022-07-24T03:25:01;17.70;99.90
18083;DHT22;9168;51.194;6.840;2022-07-24T03:27:28;17.60;99.90
18083;DHT22;9168;51.194;6.840;2022-07-24T03:29:55;17.60;99.90
18083;DHT22;9168;51.194;6.840;2022-07-24T03:32:22;17.60;99.90
18083;DHT22;9168;51.194;6.840;2022-07-24T03:34:48;17.50;99.90
18083;DHT22;9168;51.194;6.840;2022-07-24T03:37:15;17.40;99.90
18083;DHT22;9168;51.194;6.840;2022-07-24T03:39:44;17.40;99.90
18083;DHT22;9168;51.194;6.840;2022-07-24T03:42:10;17.40;99.90
18083;DHT22;9168;51.194;6.840;2022-07-24T03:44:37;17.30;99.90
18083;DHT22;9168;51.194;6.840;2022-07-24T03:47:04;17.30;99.90
18083;DHT22;9168;51.194;6.840;2022-07-24T03:49:32;17.20;99.90
18083;DHT22;9168;51.194;6.840;2022-07-24T03:51:59;17.20;99.90
18083;DHT22;9168;51.194;6.840;2022-07-24T03:54:26;17.20;99.90
18083;DHT22;9168;51.194;6.840;2022-07-24T03:56:54;17.10;99.90
18083;DHT22;9168;51.194;6.840;2022-07-24T03:59:21;17.10;99.90
18083;DHT22;9168;51.194;6.840;2022-07-24T04:01:48;17.10;99.90
18083;DHT22;9168;51.194;6.840;2022-07-24T04:04:15;17.00;99.90
18083;DHT22;9168;51.194;6.840;2022-07-24T04:06:41;17.00;99.90
18083;DHT22;9168;51.194;6.840;2022-07-24T04:09:09;17.00;99.90
18083;DHT22;9168;51.194;6.840;2022-07-24T04:11:36;17.00;99.90
18083;DHT22;9168;51.194;6.840;2022-07-24T04:14:05;17.00;99.90
18083;DHT22;9168;51.194;6.840;2022-07-24T04:16:32;17.00;99.90
18083;DHT22;9168;51.194;6.840;2022-07-24T04:18:58;16.90;99.90
18083;DHT22;9168;51.194;6.840;2022-07-24T04:21:25;16.90;99.90
18083;DHT22;9168;51.194;6.840;2022-07-24T04:23:52;16.90;99.90
18083;DHT22;9168;51.194;6.840;2022-07-24T04:26:19;16.90;99.90
18083;DHT22;9168;51.194;6.840;2022-07-24T04:28:46;16.90;99.90
18083;DHT22;9168;51.194;6.840;2022-07-24T04:31:14;16.90;99.90
18083;DHT22;9168;51.194;6.840;2022-07-24T04:33:41;16.90;99.90
18083;DHT22;9168;51.194;6.840;2022-07-24T04:36:08;16.90;99.90
18083;DHT22;9168;51.194;6.840;2022-07-24T04:38:35;16.90;99.90
18083;DHT22;9168;51.194;6.840;2022-07-24T04:41:02;17.00;99.90
18083;DHT22;9168;51.194;6.840;2022-07-24T04:43:30;17.00;99.90
18083;DHT22;9168;51.194;6.840;2022-07-24T04:45:57;17.00;99.90
18083;DHT22;9168;51.194;6.840;2022-07-24T04:48:25;17.00;99.90
18083;DHT22;9168;51.194;6.840;2022-07-24T04:50:52;17.00;99.90
18083;DHT22;9168;51.194;6.840;2022-07-24T04:53:19;17.10;99.90
18083;DHT22;9168;51.194;6.840;2022-07-24T04:55:46;17.10;99.90
18083;DHT22;9168;51.194;6.840;2022-07-24T04:58:12;17.20;99.90
18083;DHT22;9168;51.194;6.840;2022-07-24T05:00:39;17.20;99.90
18083;DHT22;9168;51.194;6.840;2022-07-24T05:03:06;17.20;99.90
18083;DHT22;9168;51.194;6.840;2022-07-24T05:05:35;17.30;99.90
18083;DHT22;9168;51.194;6.840;2022-07-24T05:08:02;17.40;99.90
18083;DHT22;9168;51.194;6.840;2022-07-24T05:10:29;17.40;99.90
18083;DHT22;9168;51.194;6.840;2022-07-24T05:12:56;17.50;99.90
18083;DHT22;9168;51.194;6.840;2022-07-24T05:15:23;17.60;99.90
18083;DHT22;9168;51.194;6.840;2022-07-24T05:17:49;17.60;99.90
18083;DHT22;9168;51.194;6.840;2022-07-24T05:20:16;17.70;99.90
18083;DHT22;9168;51.194;6.840;2022-07-24T05:22:44;17.70;99.90
18083;DHT22;9168;51.194;6.840;2022-07-24T05:25:12;17.80;99.90
18083;DHT22;9168;51.194;6.840;2022-07-24T05:27:38;17.90;99.90
18083;DHT22;9168;51.194;6.840;2022-07-24T05:30:06;18.00;99.90
18083;DHT22;9168;51.194;6.840;2022-07-24T05:32:33;18.10;99.90
18083;DHT22;9168;51.194;6.840;2022-07-24T05:35:01;18.30;99.90
18083;DHT22;9168;51.194;6.840;2022-07-24T05:37:28;18.40;99.90
18083;DHT22;9168;51.194;6.840;2022-07-24T05:39:56;18.50;99.90
18083;DHT22;9168;51.194;6.840;2022-07-24T05:42:23;18.50;99.90
18083;DHT22;9168;51.194;6.840;2022-07-24T05:44:50;18.60;99.90
18083;DHT22;9168;51.194;6.840;2022-07-24T05:47:17;18.70;99.90
18083;DHT22;9168;51.194;6.840;2022-07-24T05:49:44;18.70;99.90
18083;DHT22;9168;51.194;6.840;2022-07-24T05:52:11;18.70;99.90
18083;DHT22;9168;51.194;6.840;2022-07-24T05:54:38;18.80;99.90
18083;DHT22;9168;51.194;6.840;2022-07-24T05:57:06;18.80;99.90
18083;DHT22;9168;51.194;6.840;2022-07-24T05:59:33;18.90;99.90
18083;DHT22;9168;51.194;6.840;2022-07-24T06:02:00;19.00;99.90
18083;DHT22;9168;51.194;6.840;2022-07-24T06:04:29;19.00;99.90
18083;DHT22;9168;51.194;6.840;2022-07-24T06:06:56;19.10;99.90
18083;DHT22;9168;51.194;6.840;2022-07-24T06:09:23;19.20;99.90
18083;DHT22;9168;51.194;6.840;2022-07-24T06:11:50;19.20;99.90
18083;DHT22;9168;51.194;6.840;2022-07-24T06:14:18;19.30;99.90
18083;DHT22;9168;51.194;6.840;2022-07-24T06:16:45;19.30;99.90
18083;DHT22;9168;51.194;6.840;2022-07-24T06:19:13;19.40;99.90
18083;DHT22;9168;51.194;6.840;2022-07-24T06:21:40;19.40;99.90
18083;DHT22;9168;51.194;6.840;2022-07-24T06:24:08;19.50;99.90
18083;DHT22;9168;51.194;6.840;2022-07-24T06:26:34;19.50;99.90
18083;DHT22;9168;51.194;6.840;2022-07-24T06:29:01;19.60;99.90
18083;DHT22;9168;51.194;6.840;2022-07-24T06:31:30;19.60;99.90
18083;DHT22;9168;51.194;6.840;2022-07-24T06:33:57;19.70;99.90
18083;DHT22;9168;51.194;6.840;2022-07-24T06:36:23;19.80;99.90
18083;DHT22;9168;51.194;6.840;2022-07-24T06:38:50;19.80;99.90
18083;DHT22;9168;51.194;6.840;2022-07-24T06:41:17;19.90;99.90
18083;DHT22;9168;51.194;6.840;2022-07-24T06:43:44;19.90;99.90
18083;DHT22;9168;51.194;6.840;2022-07-24T06:46:11;20.00;99.90
18083;DHT22;9168;51.194;6.840;2022-07-24T06:48:39;20.10;99.90
18083;DHT22;9168;51.194;6.840;2022-07-24T06:51:06;20.10;99.90
18083;DHT22;9168;51.194;6.840;2022-07-24T06:53:33;20.20;99.90
18083;DHT22;9168;51.194;6.840;2022-07-24T06:56:01;20.20;99.90
18083;DHT22;9168;51.194;6.840;2022-07-24T06:58:28;20.30;99.90
18083;DHT22;9168;51.194;6.840;2022-07-24T07:00:55;20.30;99.90
18083;DHT22;9168;51.194;6.840;2022-07-24T07:03:22;20.40;99.90
18083;DHT22;9168;51.194;6.840;2022-07-24T07:05:50;20.40;99.90
18083;DHT22;9168;51.194;6.840;2022-07-24T07:08:17;20.50;99.90
18083;DHT22;9168;51.194;6.840;2022-07-24T07:10:44;20.60;99.90
18083;DHT22;9168;51.194;6.840;2022-07-24T07:13:11;20.70;99.90
18083;DHT22;9168;51.194;6.840;2022-07-24T07:15:38;20.70;99.90
18083;DHT22;9168;51.194;6.840;2022-07-24T07:18:05;20.80;99.90
18083;DHT22;9168;51.194;6.840;2022-07-24T07:20:32;20.80;99.90
18083;DHT22;9168;51.194;6.840;2022-07-24T07:23:00;20.90;99.90
18083;DHT22;9168;51.194;6.840;2022-07-24T07:25:27;20.90;99.90
18083;DHT22;9168;51.194;6.840;2022-07-24T07:27:54;21.00;99.90
18083;DHT22;9168;51.194;6.840;2022-07-24T07:30:21;21.10;99.90
18083;DHT22;9168;51.194;6.840;2022-07-24T07:32:48;21.10;99.90
18083;DHT22;9168;51.194;6.840;2022-07-24T07:35:15;21.20;99.90
18083;DHT22;9168;51.194;6.840;2022-07-24T07:37:44;21.20;99.90
18083;DHT22;9168;51.194;6.840;2022-07-24T07:40:12;21.30;99.90
18083;DHT22;9168;51.194;6.840;2022-07-24T07:42:39;21.40;99.90
18083;DHT22;9168;51.194;6.840;2022-07-24T07:45:07;21.40;99.90
18083;DHT22;9168;51.194;6.840;2022-07-24T07:47:35;21.50;99.90
18083;DHT22;9168;51.194;6.840;2022-07-24T07:50:03;21.60;99.90
18083;DHT22;9168;51.194;6.840;2022-07-24T07:52:30;21.60;99.90
18083;DHT22;9168;51.194;6.840;2022-07-24T07:54:57;21.70;99.90
18083;DHT22;9168;51.194;6.840;2022-07-24T07:57:25;21.80;99.90
18083;DHT22;9168;51.194;6.840;2022-07-24T07:59:52;21.80;99.90
18083;DHT22;9168;51.194;6.840;2022-07-24T08:02:19;21.90;99.90
18083;DHT22;9168;51.194;6.840;2022-07-24T08:04:46;22.00;99.90
18083;DHT22;9168;51.194;6.840;2022-07-24T08:07:13;22.10;99.90
18083;DHT22;9168;51.194;6.840;2022-07-24T08:09:40;22.20;99.90
18083;DHT22;9168;51.194;6.840;2022-07-24T08:12:08;22.20;99.90
18083;DHT22;9168;51.194;6.840;2022-07-24T08:14:36;22.30;99.90
18083;DHT22;9168;51.194;6.840;2022-07-24T08:17:03;22.30;99.90
18083;DHT22;9168;51.194;6.840;2022-07-24T08:19:30;22.40;99.90
18083;DHT22;9168;51.194;6.840;2022-07-24T08:21:57;22.50;99.90
18083;DHT22;9168;51.194;6.840;2022-07-24T08:24:24;22.60;99.90
18083;DHT22;9168;51.194;6.840;2022-07-24T08:26:51;22.70;99.90
18083;DHT22;9168;51.194;6.840;2022-07-24T08:29:18;22.70;99.90
18083;DHT22;9168;51.194;6.840;2022-07-24T08:31:46;22.80;99.90
18083;DHT22;9168;51.194;6.840;2022-07-24T08:34:13;22.90;99.90
18083;DHT22;9168;51.194;6.840;2022-07-24T08:36:40;22.90;99.90
18083;DHT22;9168;51.194;6.840;2022-07-24T08:39:10;22.90;99.90
18083;DHT22;9168;51.194;6.840;2022-07-24T08:41:37;23.00;99.90
18083;DHT22;9168;51.194;6.840;2022-07-24T08:44:05;23.00;99.90
18083;DHT22;9168;51.194;6.840;2022-07-24T08:46:34;23.10;99.90
18083;DHT22;9168;51.194;6.840;2022-07-24T08:49:07;23.20;99.90
18083;DHT22;9168;51.194;6.840;2022-07-24T08:51:37;23.20;99.90
18083;DHT22;9168;51.194;6.840;2022-07-24T08:54:05;23.30;99.90
18083;DHT22;9168;51.194;6.840;2022-07-24T08:56:32;23.40;99.90
18083;DHT22;9168;51.194;6.840;2022-07-24T08:59:02;23.40;99.90
18083;DHT22;9168;51.194;6.840;2022-07-24T09:01:29;23.40;99.90
18083;DHT22;9168;51.194;6.840;2022-07-24T09:03:56;23.50;99.90
18083;DHT22;9168;51.194;6.840;2022-07-24T09:06:25;23.60;99.90
18083;DHT22;9168;51.194;6.840;2022-07-24T09:08:59;23.70;99.90
18083;DHT22;9168;51.194;6.840;2022-07-24T09:11:27;23.80;99.90
18083;DHT22;9168;51.194;6.840;2022-07-24T09:13:59;23.90;99.90
18083;DHT22;9168;51.194;6.840;2022-07-24T09:16:44;24.00;99.90
18083;DHT22;9168;51.194;6.840;2022-07-24T09:19:12;24.10;99.90
18083;DHT22;9168;51.194;6.840;2022-07-24T09:21:41;24.10;99.90
18083;DHT22;9168;51.194;6.840;2022-07-24T09:24:13;24.20;99.90
18083;DHT22;9168;51.194;6.840;2022-07-24T09:26:45;24.30;99.90
18083;DHT22;9168;51.194;6.840;2022-07-24T09:29:13;24.30;99.90
18083;DHT22;9168;51.194;6.840;2022-07-24T09:31:51;24.40;99.90
18083;DHT22;9168;51.194;6.840;2022-07-24T09:34:18;24.40;99.90
18083;DHT22;9168;51.194;6.840;2022-07-24T09:36:56;24.40;99.90
18083;DHT22;9168;51.194;6.840;2022-07-24T09:39:24;24.40;99.90
18083;DHT22;9168;51.194;6.840;2022-07-24T09:41:52;24.50;99.90
18083;DHT22;9168;51.194;6.840;2022-07-24T09:44:20;24.60;99.90
18083;DHT22;9168;51.194;6.840;2022-07-24T09:47:09;24.60;99.90
18083;DHT22;9168;51.194;6.840;2022-07-24T09:49:37;24.70;99.90
18083;DHT22;9168;51.194;6.840;2022-07-24T09:52:12;24.70;99.90
18083;DHT22;9168;51.194;6.840;2022-07-24T09:54:41;24.80;99.90
18083;DHT22;9168;51.194;6.840;2022-07-24T09:57:20;24.90;99.90
18083;DHT22;9168;51.194;6.840;2022-07-24T09:59:49;25.00;99.90
18083;DHT22;9168;51.194;6.840;2022-07-24T10:02:17;25.10;99.90
18083;DHT22;9168;51.194;6.840;2022-07-24T10:04:45;25.20;99.90
18083;DHT22;9168;51.194;6.840;2022-07-24T10:07:16;25.30;99.90
18083;DHT22;9168;51.194;6.840;2022-07-24T10:09:46;25.50;99.90
18083;DHT22;9168;51.194;6.840;2022-07-24T10:12:15;25.60;99.90
18083;DHT22;9168;51.194;6.840;2022-07-24T10:14:44;25.60;99.90
18083;DHT22;9168;51.194;6.840;2022-07-24T10:17:12;25.70;99.90
18083;DHT22;9168;51.194;6.840;2022-07-24T10:19:42;25.90;99.90
18083;DHT22;9168;51.194;6.840;2022-07-24T10:22:12;26.20;99.90
18083;DHT22;9168;51.194;6.840;2022-07-24T10:25:05;26.40;99.90
18083;DHT22;9168;51.194;6.840;2022-07-24T10:27:34;26.70;99.90
18083;DHT22;9168;51.194;6.840;2022-07-24T10:30:04;26.90;99.90
18083;DHT22;9168;51.194;6.840;2022-07-24T10:32:34;27.20;99.90
18083;DHT22;9168;51.194;6.840;2022-07-24T10:35:07;27.50;99.90
18083;DHT22;9168;51.194;6.840;2022-07-24T10:37:42;27.70;99.90
18083;DHT22;9168;51.194;6.840;2022-07-24T10:40:20;28.00;99.90
18083;DHT22;9168;51.194;6.840;2022-07-24T10:43:13;28.30;99.90
18083;DHT22;9168;51.194;6.840;2022-07-24T10:45:42;28.70;99.90
18083;DHT22;9168;51.194;6.840;2022-07-24T10:48:34;28.90;99.90
18083;DHT22;9168;51.194;6.840;2022-07-24T10:51:09;29.40;99.90
18083;DHT22;9168;51.194;6.840;2022-07-24T10:53:51;29.60;99.90
18083;DHT22;9168;51.194;6.840;2022-07-24T10:56:25;30.00;99.90
18083;DHT22;9168;51.194;6.840;2022-07-24T10:59:10;30.40;99.90
18083;DHT22;9168;51.194;6.840;2022-07-24T11:01:40;30.60;99.90
18083;DHT22;9168;51.194;6.840;2022-07-24T11:04:27;30.70;99.40
18083;DHT22;9168;51.194;6.840;2022-07-24T11:06:56;31.00;99.10
18083;DHT22;9168;51.194;6.840;2022-07-24T11:09:27;31.10;97.70
18083;DHT22;9168;51.194;6.840;2022-07-24T11:12:06;31.30;97.70
18083;DHT22;9168;51.194;6.840;2022-07-24T11:14:49;31.40;97.10
18083;DHT22;9168;51.194;6.840;2022-07-24T11:17:35;31.40;97.10
18083;DHT22;9168;51.194;6.840;2022-07-24T11:20:03;31.60;96.90
18083;DHT22;9168;51.194;6.840;2022-07-24T11:22:38;31.70;96.70
18083;DHT22;9168;51.194;6.840;2022-07-24T11:25:07;31.70;95.60
18083;DHT22;9168;51.194;6.840;2022-07-24T11:27:44;32.00;96.40
18083;DHT22;9168;51.194;6.840;2022-07-24T11:30:11;32.20;95.40
18083;DHT22;9168;51.194;6.840;2022-07-24T11:32:39;32.40;96.00
18083;DHT22;9168;51.194;6.840;2022-07-24T11:35:07;32.40;93.30
18083;DHT22;9168;51.194;6.840;2022-07-24T11:37:35;32.50;93.50
18083;DHT22;9168;51.194;6.840;2022-07-24T11:40:03;32.70;94.50
18083;DHT22;9168;51.194;6.840;2022-07-24T11:42:31;32.90;94.00
18083;DHT22;9168;51.194;6.840;2022-07-24T11:45:00;33.00;92.90
18083;DHT22;9168;51.194;6.840;2022-07-24T11:47:28;33.10;92.10
18083;DHT22;9168;51.194;6.840;2022-07-24T11:49:58;33.30;93.10
18083;DHT22;9168;51.194;6.840;2022-07-24T11:52:28;33.40;92.20
18083;DHT22;9168;51.194;6.840;2022-07-24T11:54:58;33.20;92.30
18083;DHT22;9168;51.194;6.840;2022-07-24T11:57:26;32.90;91.30
18083;DHT22;9168;51.194;6.840;2022-07-24T11:59:54;32.70;92.30
18083;DHT22;9168;51.194;6.840;2022-07-24T12:02:23;32.80;91.00
18083;DHT22;9168;51.194;6.840;2022-07-24T12:04:51;33.00;89.40
18083;DHT22;9168;51.194;6.840;2022-07-24T12:07:20;33.20;90.30
18083;DHT22;9168;51.194;6.840;2022-07-24T12:09:49;33.50;90.70
18083;DHT22;9168;51.194;6.840;2022-07-24T12:12:24;33.80;90.80
18083;DHT22;9168;51.194;6.840;2022-07-24T12:14:54;33.90;86.00
18083;DHT22;9168;51.194;6.840;2022-07-24T12:17:27;34.00;84.90
18083;DHT22;9168;51.194;6.840;2022-07-24T12:19:55;34.20;84.10
18083;DHT22;9168;51.194;6.840;2022-07-24T12:22:23;34.50;85.50
18083;DHT22;9168;51.194;6.840;2022-07-24T12:24:51;34.70;83.10
18083;DHT22;9168;51.194;6.840;2022-07-24T12:27:33;35.00;83.60
18083;DHT22;9168;51.194;6.840;2022-07-24T12:30:00;35.30;81.60
18083;DHT22;9168;51.194;6.840;2022-07-24T12:32:28;35.30;81.70
18083;DHT22;9168;51.194;6.840;2022-07-24T12:34:55;35.40;82.10
18083;DHT22;9168;51.194;6.840;2022-07-24T12:37:22;35.20;81.30
18083;DHT22;9168;51.194;6.840;2022-07-24T12:39:51;35.50;82.60
18083;DHT22;9168;51.194;6.840;2022-07-24T12:42:29;35.80;82.40
18083;DHT22;9168;51.194;6.840;2022-07-24T12:45:06;36.10;80.70
18083;DHT22;9168;51.194;6.840;2022-07-24T12:50:17;36.20;78.40
18083;DHT22;9168;51.194;6.840;2022-07-24T12:52:49;36.10;78.20
18083;DHT22;9168;51.194;6.840;2022-07-24T12:55:21;36.30;78.60
18083;DHT22;9168;51.194;6.840;2022-07-24T12:57:57;36.40;78.30
18083;DHT22;9168;51.194;6.840;2022-07-24T13:00:28;36.50;77.60
18083;DHT22;9168;51.194;6.840;2022-07-24T13:02:57;36.20;76.00
18083;DHT22;9168;51.194;6.840;2022-07-24T13:05:36;36.20;76.20
18083;DHT22;9168;51.194;6.840;2022-07-24T13:08:04;36.50;77.30
18083;DHT22;9168;51.194;6.840;2022-07-24T13:10:31;36.80;76.90
18083;DHT22;9168;51.194;6.840;2022-07-24T13:12:58;37.10;77.20
18083;DHT22;9168;51.194;6.840;2022-07-24T13:15:25;36.80;75.40
18083;DHT22;9168;51.194;6.840;2022-07-24T13:17:52;36.60;76.10
18083;DHT22;9168;51.194;6.840;2022-07-24T13:20:21;36.30;76.10
18083;DHT22;9168;51.194;6.840;2022-07-24T13:22:48;36.20;76.00
18083;DHT22;9168;51.194;6.840;2022-07-24T13:25:15;36.20;78.40
18083;DHT22;9168;51.194;6.840;2022-07-24T13:27:42;36.10;76.40
18083;DHT22;9168;51.194;6.840;2022-07-24T13:30:10;36.20;76.70
18083;DHT22;9168;51.194;6.840;2022-07-24T13:32:37;36.20;76.70
18083;DHT22;9168;51.194;6.840;2022-07-24T13:35:04;36.20;78.50
18083;DHT22;9168;51.194;6.840;2022-07-24T13:37:33;36.10;78.70
18083;DHT22;9168;51.194;6.840;2022-07-24T13:40:00;36.10;79.80
18083;DHT22;9168;51.194;6.840;2022-07-24T13:42:28;35.80;78.80
18083;DHT22;9168;51.194;6.840;2022-07-24T13:44:55;35.60;81.50
18083;DHT22;9168;51.194;6.840;2022-07-24T13:47:21;35.60;79.20
18083;DHT22;9168;51.194;6.840;2022-07-24T13:49:48;35.50;78.70
18083;DHT22;9168;51.194;6.840;2022-07-24T13:52:15;35.40;78.00
18083;DHT22;9168;51.194;6.840;2022-07-24T13:54:43;35.40;79.80
18083;DHT22;9168;51.194;6.840;2022-07-24T13:57:10;35.30;80.90
18083;DHT22;9168;51.194;6.840;2022-07-24T13:59:39;35.00;78.80
18083;DHT22;9168;51.194;6.840;2022-07-24T14:02:06;35.10;78.80
18083;DHT22;9168;51.194;6.840;2022-07-24T14:04:33;35.00;80.40
18083;DHT22;9168;51.194;6.840;2022-07-24T14:07:00;34.90;78.00
18083;DHT22;9168;51.194;6.840;2022-07-24T14:09:27;34.50;77.80
18083;DHT22;9168;51.194;6.840;2022-07-24T14:11:55;34.40;78.10
18083;DHT22;9168;51.194;6.840;2022-07-24T14:14:22;34.50;80.60
18083;DHT22;9168;51.194;6.840;2022-07-24T14:16:49;34.50;80.50
18083;DHT22;9168;51.194;6.840;2022-07-24T14:19:16;34.40;79.30
18083;DHT22;9168;51.194;6.840;2022-07-24T14:21:43;34.40;79.20
18083;DHT22;9168;51.194;6.840;2022-07-24T14:24:13;34.50;82.00
18083;DHT22;9168;51.194;6.840;2022-07-24T14:26:40;34.70;81.10
18083;DHT22;9168;51.194;6.840;2022-07-24T14:29:09;34.70;80.00
18083;DHT22;9168;51.194;6.840;2022-07-24T14:31:35;34.70;80.90
18083;DHT22;9168;51.194;6.840;2022-07-24T14:34:03;34.70;79.20
18083;DHT22;9168;51.194;6.840;2022-07-24T14:36:30;34.70;78.90
18083;DHT22;9168;51.194;6.840;2022-07-24T14:38:57;34.50;77.10
18083;DHT22;9168;51.194;6.840;2022-07-24T14:41:24;34.40;76.90
18083;DHT22;9168;51.194;6.840;2022-07-24T14:43:51;34.30;78.20
18083;DHT22;9168;51.194;6.840;2022-07-24T14:46:19;34.00;77.50
18083;DHT22;9168;51.194;6.840;2022-07-24T14:48:46;34.10;78.40
18083;DHT22;9168;51.194;6.840;2022-07-24T14:51:13;34.10;79.80
18083;DHT22;9168;51.194;6.840;2022-07-24T14:53:39;34.20;81.80
18083;DHT22;9168;51.194;6.840;2022-07-24T14:56:06;34.10;80.80
18083;DHT22;9168;51.194;6.840;2022-07-24T14:58:33;34.00;79.80
18083;DHT22;9168;51.194;6.840;2022-07-24T15:01:01;34.00;79.40
18083;DHT22;9168;51.194;6.840;2022-07-24T15:03:29;33.80;79.70
18083;DHT22;9168;51.194;6.840;2022-07-24T15:05:56;33.70;79.40
18083;DHT22;9168;51.194;6.840;2022-07-24T15:08:23;33.60;79.90
18083;DHT22;9168;51.194;6.840;2022-07-24T15:10:50;33.40;79.90
18083;DHT22;9168;51.194;6.840;2022-07-24T15:13:17;33.40;80.80
18083;DHT22;9168;51.194;6.840;2022-07-24T15:15:44;33.30;79.20
18083;DHT22;9168;51.194;6.840;2022-07-24T15:18:11;33.30;80.40
18083;DHT22;9168;51.194;6.840;2022-07-24T15:20:40;33.30;80.90
18083;DHT22;9168;51.194;6.840;2022-07-24T15:23:07;33.30;79.70
18083;DHT22;9168;51.194;6.840;2022-07-24T15:25:34;33.20;79.40
18083;DHT22;9168;51.194;6.840;2022-07-24T15:28:04;33.20;78.00
18083;DHT22;9168;51.194;6.840;2022-07-24T15:30:31;33.10;79.40
18083;DHT22;9168;51.194;6.840;2022-07-24T15:32:58;33.00;79.30
18083;DHT22;9168;51.194;6.840;2022-07-24T15:35:27;33.00;81.20
18083;DHT22;9168;51.194;6.840;2022-07-24T15:37:56;32.90;79.90
18083;DHT22;9168;51.194;6.840;2022-07-24T15:40:24;32.70;81.00
18083;DHT22;9168;51.194;6.840;2022-07-24T15:42:52;32.60;79.30
18083;DHT22;9168;51.194;6.840;2022-07-24T15:45:20;32.50;79.80
18083;DHT22;9168;51.194;6.840;2022-07-24T15:47:47;32.50;81.60
18083;DHT22;9168;51.194;6.840;2022-07-24T15:50:14;32.40;81.60
18083;DHT22;9168;51.194;6.840;2022-07-24T15:52:41;32.20;80.60
18083;DHT22;9168;51.194;6.840;2022-07-24T15:55:10;32.10;81.50